createdAt,value
2017-12-04T00:00:33.819Z,963.98
2017-12-04T00:01:33.828Z,963.89
2017-12-04T00:02:33.840Z,963.95
2017-12-04T00:03:33.851Z,963.96
2017-12-04T00:04:33.862Z,963.95
2017-12-04T00:05:33.873Z,963.92
2017-12-04T00:06:33.884Z,963.96
2017-12-04T00:07:33.945Z,963.91
2017-12-04T00:08:33.908Z,963.91
2017-12-04T00:09:33.918Z,963.9
2017-12-04T00:10:33.930Z,963.97
2017-12-04T00:11:33.941Z,963.96
2017-12-04T00:12:33.951Z,963.94
2017-12-04T00:13:33.962Z,964.01
2017-12-04T00:14:33.974Z,963.97
2017-12-04T00:15:33.986Z,963.95
2017-12-04T00:16:33.999Z,963.99
2017-12-04T00:17:34.007Z,963.99
2017-12-04T00:18:34.018Z,963.98
2017-12-04T00:19:34.028Z,963.94
2017-12-04T00:20:34.042Z,964.01
2017-12-04T00:21:34.051Z,963.95
2017-12-04T00:22:34.112Z,964.03
2017-12-04T00:23:34.074Z,963.96
2017-12-04T00:24:34.084Z,963.95
2017-12-04T00:25:34.096Z,964.03
2017-12-04T00:26:34.107Z,964.05
2017-12-04T00:27:34.118Z,964.04
2017-12-04T00:28:34.128Z,964.07
2017-12-04T00:29:34.140Z,964.02
2017-12-04T00:30:34.152Z,964.07
2017-12-04T00:31:34.161Z,964.04
2017-12-04T00:32:34.172Z,964.06
2017-12-04T00:33:34.184Z,964.06
2017-12-04T00:34:34.215Z,964.11
2017-12-04T00:35:34.208Z,964
2017-12-04T00:36:34.217Z,964.11
2017-12-04T00:37:34.279Z,963.98
2017-12-04T00:38:34.240Z,964.02
2017-12-04T00:39:34.250Z,964.02
2017-12-04T00:40:34.261Z,963.97
2017-12-04T00:41:34.281Z,963.98
2017-12-04T00:42:34.284Z,963.91
2017-12-04T00:43:34.296Z,963.93
2017-12-04T00:44:34.305Z,963.98
2017-12-04T00:45:34.316Z,963.94
2017-12-04T00:46:34.326Z,963.91
2017-12-04T00:47:34.339Z,963.98
2017-12-04T00:48:34.351Z,964.01
2017-12-04T00:49:34.360Z,964.01
2017-12-04T00:50:34.371Z,964.04
2017-12-04T00:51:34.384Z,964.08
2017-12-04T00:52:34.394Z,964.05
2017-12-04T00:53:34.404Z,964.08
2017-12-04T00:54:34.466Z,964.09
2017-12-04T00:55:34.429Z,964.07
2017-12-04T00:56:34.437Z,964.04
2017-12-04T00:57:34.453Z,964.07
2017-12-04T00:58:34.461Z,964.04
2017-12-04T00:59:34.473Z,964.11
2017-12-04T01:00:34.483Z,964.09
2017-12-04T01:01:34.495Z,964.11
2017-12-04T01:02:34.506Z,964.07
2017-12-04T01:03:34.515Z,964.07
2017-12-04T01:04:34.527Z,964.1
2017-12-04T01:05:34.538Z,964.08
2017-12-04T01:06:34.551Z,964.11
2017-12-04T01:07:34.559Z,964.08
2017-12-04T01:08:34.577Z,964.11
2017-12-04T01:09:34.582Z,964.07
2017-12-04T01:10:34.595Z,964.05
2017-12-04T01:11:34.604Z,964.13
2017-12-04T01:12:34.616Z,964.14
2017-12-04T01:13:34.627Z,964.2
2017-12-04T01:14:34.638Z,964.2
2017-12-04T01:15:34.649Z,964.3
2017-12-04T01:16:34.663Z,964.3
2017-12-04T01:17:34.674Z,964.29
2017-12-04T01:18:34.685Z,964.28
2017-12-04T01:19:34.696Z,964.31
2017-12-04T01:20:34.706Z,964.29
2017-12-04T01:21:34.717Z,964.26
2017-12-04T01:22:34.729Z,964.29
2017-12-04T01:23:34.740Z,964.24
2017-12-04T01:24:34.754Z,964.27
2017-12-04T01:25:34.762Z,964.4
2017-12-04T01:26:34.773Z,964.35
2017-12-04T01:27:34.784Z,964.3
2017-12-04T01:28:34.799Z,964.39
2017-12-04T01:29:34.807Z,964.38
2017-12-04T01:30:34.868Z,964.34
2017-12-04T01:31:34.832Z,964.35
2017-12-04T01:32:34.842Z,964.34
2017-12-04T01:33:34.855Z,964.4
2017-12-04T01:34:34.862Z,964.39
2017-12-04T01:35:34.877Z,964.47
2017-12-04T01:36:34.885Z,964.44
2017-12-04T01:37:34.897Z,964.41
2017-12-04T01:38:34.907Z,964.43
2017-12-04T01:39:34.918Z,964.48
2017-12-04T01:40:34.930Z,964.52
2017-12-04T01:41:34.940Z,964.42
2017-12-04T01:42:34.952Z,964.48
2017-12-04T01:43:34.964Z,964.44
2017-12-04T01:44:34.974Z,964.53
2017-12-04T01:45:34.989Z,964.47
2017-12-04T01:46:34.998Z,964.5
2017-12-04T01:47:35.010Z,964.46
2017-12-04T01:48:35.019Z,964.51
2017-12-04T01:49:35.081Z,964.46
2017-12-04T01:50:35.041Z,964.43
2017-12-04T01:51:35.052Z,964.5
2017-12-04T01:52:35.063Z,964.51
2017-12-04T01:53:35.075Z,964.52
2017-12-04T01:54:35.085Z,964.53
2017-12-04T01:55:35.096Z,964.54
2017-12-04T01:56:35.107Z,964.49
2017-12-04T01:57:35.118Z,964.61
2017-12-04T01:58:35.128Z,964.48
2017-12-04T01:59:35.140Z,964.53
2017-12-04T02:00:35.151Z,964.47
2017-12-04T02:01:35.164Z,964.46
2017-12-04T02:02:35.174Z,964.48
2017-12-04T02:03:35.184Z,964.47
2017-12-04T02:04:35.196Z,964.46
2017-12-04T02:05:35.267Z,964.49
2017-12-04T02:06:35.233Z,964.43
2017-12-04T02:07:35.230Z,964.45
2017-12-04T02:08:35.240Z,964.37
2017-12-04T02:09:35.252Z,964.4
2017-12-04T02:10:35.265Z,964.41
2017-12-04T02:11:35.274Z,964.42
2017-12-04T02:12:35.284Z,964.41
2017-12-04T02:13:35.300Z,964.33
2017-12-04T02:14:35.305Z,964.43
2017-12-04T02:15:35.317Z,964.36
2017-12-04T02:16:35.329Z,964.37
2017-12-04T02:17:35.340Z,964.42
2017-12-04T02:18:35.351Z,964.39
2017-12-04T02:19:35.363Z,964.37
2017-12-04T02:20:35.427Z,964.47
2017-12-04T02:21:35.384Z,964.41
2017-12-04T02:22:35.398Z,964.52
2017-12-04T02:23:35.408Z,964.51
2017-12-04T02:24:35.417Z,964.5
2017-12-04T02:25:35.429Z,964.49
2017-12-04T02:26:35.442Z,964.46
2017-12-04T02:27:35.451Z,964.46
2017-12-04T02:28:35.463Z,964.46
2017-12-04T02:29:35.474Z,964.42
2017-12-04T02:30:35.487Z,964.47
2017-12-04T02:31:35.496Z,964.49
2017-12-04T02:32:35.508Z,964.43
2017-12-04T02:33:35.520Z,964.46
2017-12-04T02:34:35.531Z,964.45
2017-12-04T02:35:35.543Z,964.4
2017-12-04T02:36:35.555Z,964.39
2017-12-04T02:37:35.614Z,964.35
2017-12-04T02:38:35.574Z,964.41
2017-12-04T02:39:35.588Z,964.36
2017-12-04T02:40:35.598Z,964.39
2017-12-04T02:41:35.624Z,964.42
2017-12-04T02:42:35.621Z,964.42
2017-12-04T02:43:35.632Z,964.47
2017-12-04T02:44:35.643Z,964.6
2017-12-04T02:45:35.654Z,964.49
2017-12-04T02:46:35.665Z,964.59
2017-12-04T02:47:35.737Z,964.55
2017-12-04T02:48:35.727Z,964.55
2017-12-04T02:49:35.700Z,964.58
2017-12-04T02:50:35.710Z,964.6
2017-12-04T02:51:35.721Z,964.65
2017-12-04T02:52:35.784Z,964.57
2017-12-04T02:53:35.744Z,964.65
2017-12-04T02:54:35.755Z,964.61
2017-12-04T02:55:35.871Z,964.63
2017-12-04T02:56:35.780Z,964.6
2017-12-04T02:57:35.790Z,964.62
2017-12-04T02:58:35.800Z,964.61
2017-12-04T02:59:35.812Z,964.72
2017-12-04T03:00:35.822Z,964.68
2017-12-04T03:01:35.835Z,964.64
2017-12-04T03:02:35.845Z,964.67
2017-12-04T03:03:35.857Z,964.72
2017-12-04T03:04:35.869Z,964.67
2017-12-04T03:05:35.880Z,964.62
2017-12-04T03:06:35.892Z,964.55
2017-12-04T03:07:35.903Z,964.58
2017-12-04T03:08:35.914Z,964.64
2017-12-04T03:09:35.925Z,964.57
2017-12-04T03:10:35.987Z,964.63
2017-12-04T03:11:35.947Z,964.64
2017-12-04T03:12:35.958Z,964.62
2017-12-04T03:13:35.970Z,964.54
2017-12-04T03:14:35.984Z,964.6
2017-12-04T03:15:35.992Z,964.53
2017-12-04T03:16:36.003Z,964.65
2017-12-04T03:17:36.015Z,964.65
2017-12-04T03:18:36.026Z,964.57
2017-12-04T03:19:36.037Z,964.58
2017-12-04T03:20:36.048Z,964.67
2017-12-04T03:21:36.060Z,964.58
2017-12-04T03:22:36.071Z,964.57
2017-12-04T03:23:36.082Z,964.63
2017-12-04T03:24:36.094Z,964.59
2017-12-04T03:25:36.105Z,964.57
2017-12-04T03:26:36.115Z,964.57
2017-12-04T03:27:36.126Z,964.62
2017-12-04T03:28:36.187Z,964.61
2017-12-04T03:29:36.148Z,964.57
2017-12-04T03:30:36.160Z,964.61
2017-12-04T03:31:36.187Z,964.58
2017-12-04T03:32:36.182Z,964.54
2017-12-04T03:33:36.193Z,964.5
2017-12-04T03:34:36.206Z,964.55
2017-12-04T03:35:36.216Z,964.52
2017-12-04T03:36:36.226Z,964.51
2017-12-04T03:37:36.237Z,964.47
2017-12-04T03:38:36.252Z,964.54
2017-12-04T03:39:36.280Z,964.43
2017-12-04T03:40:36.271Z,964.48
2017-12-04T03:41:36.283Z,964.46
2017-12-04T03:42:36.294Z,964.54
2017-12-04T03:43:36.306Z,964.56
2017-12-04T03:44:36.316Z,964.61
2017-12-04T03:45:36.332Z,964.61
2017-12-04T03:46:36.388Z,964.49
2017-12-04T03:47:36.355Z,964.57
2017-12-04T03:48:36.359Z,964.49
2017-12-04T03:49:36.372Z,964.54
2017-12-04T03:50:36.381Z,964.52
2017-12-04T03:51:36.393Z,964.58
2017-12-04T03:52:36.411Z,964.5
2017-12-04T03:53:36.416Z,964.57
2017-12-04T03:54:36.426Z,964.5
2017-12-04T03:55:36.437Z,964.51
2017-12-04T03:56:36.448Z,964.56
2017-12-04T03:57:36.461Z,964.51
2017-12-04T03:58:36.470Z,964.59
2017-12-04T03:59:36.482Z,964.56
2017-12-04T04:00:36.492Z,964.58
2017-12-04T04:01:36.503Z,964.57
2017-12-04T04:02:36.513Z,964.61
2017-12-04T04:03:36.524Z,964.62
2017-12-04T04:04:36.536Z,964.62
2017-12-04T04:05:36.547Z,964.63
2017-12-04T04:06:36.557Z,964.6
2017-12-04T04:07:36.570Z,964.65
2017-12-04T04:08:36.580Z,964.58
2017-12-04T04:09:36.597Z,964.66
2017-12-04T04:10:36.601Z,964.64
2017-12-04T04:11:36.616Z,964.67
2017-12-04T04:12:36.624Z,964.67
2017-12-04T04:13:36.634Z,964.68
2017-12-04T04:14:36.646Z,964.66
2017-12-04T04:15:36.658Z,964.73
2017-12-04T04:16:36.669Z,964.68
2017-12-04T04:17:36.680Z,964.8
2017-12-04T04:18:36.690Z,964.72
2017-12-04T04:19:37.956Z,964.66
2017-12-04T04:20:36.713Z,964.73
2017-12-04T04:21:36.724Z,964.75
2017-12-04T04:22:36.735Z,964.76
2017-12-04T04:23:36.745Z,964.76
2017-12-04T04:24:36.758Z,964.78
2017-12-04T04:25:36.768Z,964.79
2017-12-04T04:26:36.779Z,964.79
2017-12-04T04:27:36.790Z,964.78
2017-12-04T04:28:36.800Z,964.8
2017-12-04T04:29:36.812Z,964.78
2017-12-04T04:30:36.823Z,964.86
2017-12-04T04:31:36.835Z,964.83
2017-12-04T04:32:36.845Z,964.82
2017-12-04T04:33:36.855Z,964.82
2017-12-04T04:34:36.868Z,964.86
2017-12-04T04:35:36.877Z,964.91
2017-12-04T04:36:36.890Z,964.85
2017-12-04T04:37:36.900Z,964.88
2017-12-04T04:38:37.061Z,964.82
2017-12-04T04:39:36.922Z,964.9
2017-12-04T04:40:36.965Z,964.87
2017-12-04T04:41:36.945Z,964.75
2017-12-04T04:42:36.957Z,964.8
2017-12-04T04:43:36.968Z,964.77
2017-12-04T04:44:36.979Z,964.8
2017-12-04T04:45:36.989Z,964.79
2017-12-04T04:46:37.000Z,964.82
2017-12-04T04:47:37.011Z,964.85
2017-12-04T04:48:37.023Z,964.83
2017-12-04T04:49:37.034Z,964.86
2017-12-04T04:50:37.050Z,964.84
2017-12-04T04:51:37.056Z,964.86
2017-12-04T04:52:37.067Z,964.86
2017-12-04T04:53:37.079Z,964.88
2017-12-04T04:54:37.089Z,964.79
2017-12-04T04:55:37.101Z,964.85
2017-12-04T04:56:37.112Z,964.86
2017-12-04T04:57:37.174Z,964.9
2017-12-04T04:58:37.133Z,964.82
2017-12-04T04:59:37.145Z,964.84
2017-12-04T05:00:37.161Z,964.87
2017-12-04T05:01:37.166Z,964.79
2017-12-04T05:02:37.179Z,964.8
2017-12-04T05:03:37.204Z,964.76
2017-12-04T05:04:37.200Z,964.88
2017-12-04T05:05:37.211Z,964.86
2017-12-04T05:06:37.222Z,964.86
2017-12-04T05:07:37.234Z,964.87
2017-12-04T05:08:37.246Z,964.91
2017-12-04T05:09:37.254Z,964.91
2017-12-04T05:10:37.272Z,964.87
2017-12-04T05:11:37.277Z,964.94
2017-12-04T05:12:37.289Z,964.86
2017-12-04T05:13:37.299Z,964.96
2017-12-04T05:14:37.311Z,965.02
2017-12-04T05:15:37.321Z,965.03
2017-12-04T05:16:37.383Z,965.09
2017-12-04T05:17:37.348Z,965.11
2017-12-04T05:18:37.356Z,965.09
2017-12-04T05:19:37.368Z,965.09
2017-12-04T05:20:37.379Z,965.09
2017-12-04T05:21:37.389Z,965
2017-12-04T05:22:37.401Z,965.04
2017-12-04T05:23:37.412Z,965.02
2017-12-04T05:24:37.425Z,964.98
2017-12-04T05:25:37.435Z,964.97
2017-12-04T05:26:37.446Z,965.02
2017-12-04T05:27:37.455Z,965.03
2017-12-04T05:28:37.468Z,965.01
2017-12-04T05:29:37.479Z,965.01
2017-12-04T05:30:37.495Z,965.03
2017-12-04T05:31:37.551Z,965.09
2017-12-04T05:32:37.513Z,965.04
2017-12-04T05:33:37.529Z,965.05
2017-12-04T05:34:37.543Z,965.03
2017-12-04T05:35:37.548Z,965.08
2017-12-04T05:36:37.558Z,965.16
2017-12-04T05:37:37.568Z,965.11
2017-12-04T05:38:37.581Z,965.18
2017-12-04T05:39:37.593Z,965.1
2017-12-04T05:40:37.608Z,965.19
2017-12-04T05:41:37.618Z,965.16
2017-12-04T05:42:37.626Z,965.23
2017-12-04T05:43:37.638Z,965.17
2017-12-04T05:44:37.649Z,965.21
2017-12-04T05:45:37.661Z,965.16
2017-12-04T05:46:37.672Z,965.23
2017-12-04T05:47:37.685Z,965.21
2017-12-04T05:48:37.694Z,965.2
2017-12-04T05:49:37.706Z,965.23
2017-12-04T05:50:37.769Z,965.25
2017-12-04T05:51:37.734Z,965.32
2017-12-04T05:52:37.739Z,965.26
2017-12-04T05:53:37.750Z,965.26
2017-12-04T05:54:37.763Z,965.21
2017-12-04T05:55:37.875Z,965.26
2017-12-04T05:56:37.784Z,965.19
2017-12-04T05:57:37.796Z,965.17
2017-12-04T05:58:37.808Z,965.26
2017-12-04T05:59:37.819Z,965.17
2017-12-04T06:00:37.831Z,965.16
2017-12-04T06:01:37.841Z,965.17
2017-12-04T06:02:37.853Z,965.19
2017-12-04T06:03:37.864Z,965.2
2017-12-04T06:04:37.877Z,965.23
2017-12-04T06:05:37.938Z,965.11
2017-12-04T06:06:37.898Z,965.21
2017-12-04T06:07:37.909Z,965.18
2017-12-04T06:08:37.920Z,965.19
2017-12-04T06:09:37.938Z,965.16
2017-12-04T06:10:37.942Z,965.2
2017-12-04T06:11:37.954Z,965.21
2017-12-04T06:12:37.965Z,965.34
2017-12-04T06:13:37.977Z,965.19
2017-12-04T06:14:37.989Z,965.28
2017-12-04T06:15:37.999Z,965.24
2017-12-04T06:16:38.011Z,965.26
2017-12-04T06:17:38.023Z,965.27
2017-12-04T06:18:38.033Z,965.35
2017-12-04T06:19:38.044Z,965.35
2017-12-04T06:20:38.106Z,965.38
2017-12-04T06:21:38.095Z,965.4
2017-12-04T06:22:38.079Z,965.38
2017-12-04T06:23:38.091Z,965.37
2017-12-04T06:24:38.104Z,965.41
2017-12-04T06:25:38.113Z,965.36
2017-12-04T06:26:38.127Z,965.4
2017-12-04T06:27:38.138Z,965.37
2017-12-04T06:28:38.164Z,965.45
2017-12-04T06:29:38.159Z,965.46
2017-12-04T06:30:38.171Z,965.44
2017-12-04T06:31:38.183Z,965.46
2017-12-04T06:32:38.194Z,965.39
2017-12-04T06:33:38.276Z,965.47
2017-12-04T06:34:38.217Z,965.49
2017-12-04T06:35:38.278Z,965.49
2017-12-04T06:36:38.245Z,965.48
2017-12-04T06:37:38.250Z,965.45
2017-12-04T06:38:38.266Z,965.55
2017-12-04T06:39:38.272Z,965.57
2017-12-04T06:40:38.284Z,965.55
2017-12-04T06:41:38.295Z,965.55
2017-12-04T06:42:38.308Z,965.57
2017-12-04T06:43:38.318Z,965.64
2017-12-04T06:44:38.329Z,965.6
2017-12-04T06:45:38.340Z,965.73
2017-12-04T06:46:38.352Z,965.73
2017-12-04T06:47:38.363Z,965.65
2017-12-04T06:48:38.375Z,965.71
2017-12-04T06:49:38.390Z,965.77
2017-12-04T06:50:38.397Z,965.74
2017-12-04T06:51:38.459Z,965.74
2017-12-04T06:52:38.420Z,965.73
2017-12-04T06:53:38.433Z,965.71
2017-12-04T06:54:38.444Z,965.71
2017-12-04T06:55:38.454Z,965.75
2017-12-04T06:56:38.467Z,965.73
2017-12-04T06:57:38.478Z,965.81
2017-12-04T06:58:38.489Z,965.81
2017-12-04T06:59:38.499Z,965.79
2017-12-04T07:00:38.512Z,965.87
2017-12-04T07:01:38.522Z,965.82
2017-12-04T07:02:38.534Z,965.85
2017-12-04T07:03:38.546Z,965.86
2017-12-04T07:04:38.557Z,965.87
2017-12-04T07:05:38.567Z,965.88
2017-12-04T07:06:38.586Z,965.84
2017-12-04T07:07:38.592Z,965.93
2017-12-04T07:08:38.652Z,965.89
2017-12-04T07:09:38.614Z,965.95
2017-12-04T07:10:38.624Z,965.9
2017-12-04T07:11:38.635Z,965.91
2017-12-04T07:12:38.647Z,965.96
2017-12-04T07:13:38.659Z,965.94
2017-12-04T07:14:38.671Z,965.96
2017-12-04T07:15:38.681Z,965.99
2017-12-04T07:16:38.692Z,965.98
2017-12-04T07:17:38.705Z,965.95
2017-12-04T07:18:38.714Z,966.01
2017-12-04T07:19:38.726Z,965.97
2017-12-04T07:20:38.737Z,966.02
2017-12-04T07:21:38.749Z,966.04
2017-12-04T07:22:38.761Z,965.97
2017-12-04T07:23:38.820Z,966.02
2017-12-04T07:24:38.782Z,966.1
2017-12-04T07:25:38.794Z,965.96
2017-12-04T07:26:38.806Z,966.08
2017-12-04T07:27:38.819Z,966
2017-12-04T07:28:38.885Z,966.22
2017-12-04T07:29:38.842Z,966.09
2017-12-04T07:30:38.854Z,966.13
2017-12-04T07:31:38.866Z,966.23
2017-12-04T07:32:38.877Z,966.11
2017-12-04T07:33:38.887Z,966.25
2017-12-04T07:34:38.899Z,966.24
2017-12-04T07:35:38.910Z,966.21
2017-12-04T07:36:38.922Z,966.21
2017-12-04T07:37:38.950Z,966.16
2017-12-04T07:38:38.995Z,966.31
2017-12-04T07:39:38.976Z,966.34
2017-12-04T07:40:38.970Z,966.37
2017-12-04T07:41:38.981Z,966.38
2017-12-04T07:42:38.991Z,966.31
2017-12-04T07:43:39.003Z,966.34
2017-12-04T07:44:39.015Z,966.36
2017-12-04T07:45:39.079Z,966.42
2017-12-04T07:46:39.043Z,966.42
2017-12-04T07:47:39.051Z,966.39
2017-12-04T07:48:39.063Z,966.42
2017-12-04T07:49:39.074Z,966.39
2017-12-04T07:50:39.086Z,966.49
2017-12-04T07:51:39.097Z,966.41
2017-12-04T07:52:39.111Z,966.48
2017-12-04T07:53:39.122Z,966.51
2017-12-04T07:54:39.134Z,966.52
2017-12-04T07:55:39.195Z,966.49
2017-12-04T07:56:39.156Z,966.55
2017-12-04T07:57:39.169Z,966.56
2017-12-04T07:58:39.181Z,966.58
2017-12-04T07:59:39.193Z,966.53
2017-12-04T08:00:39.203Z,966.58
2017-12-04T08:01:39.216Z,966.55
2017-12-04T08:02:39.228Z,966.58
2017-12-04T08:03:39.239Z,966.49
2017-12-04T08:04:39.254Z,966.56
2017-12-04T08:05:39.264Z,966.46
2017-12-04T08:06:39.277Z,966.47
2017-12-04T08:07:39.288Z,966.57
2017-12-04T08:08:39.301Z,966.45
2017-12-04T08:09:39.313Z,966.45
2017-12-04T08:10:39.375Z,966.48
2017-12-04T08:11:39.336Z,966.51
2017-12-04T08:12:39.349Z,966.5
2017-12-04T08:13:39.360Z,966.48
2017-12-04T08:14:39.372Z,966.51
2017-12-04T08:15:39.383Z,966.46
2017-12-04T08:16:39.396Z,966.55
2017-12-04T08:17:39.407Z,966.58
2017-12-04T08:18:39.419Z,966.56
2017-12-04T08:19:39.431Z,966.63
2017-12-04T08:20:39.444Z,966.53
2017-12-04T08:21:39.458Z,966.56
2017-12-04T08:22:39.468Z,966.57
2017-12-04T08:23:39.478Z,966.58
2017-12-04T08:24:39.492Z,966.54
2017-12-04T08:25:39.557Z,966.57
2017-12-04T08:26:39.515Z,966.6
2017-12-04T08:27:39.526Z,966.72
2017-12-04T08:28:39.538Z,966.7
2017-12-04T08:29:39.551Z,966.73
2017-12-04T08:30:39.562Z,966.75
2017-12-04T08:31:39.575Z,966.69
2017-12-04T08:32:39.588Z,966.77
2017-12-04T08:33:39.598Z,966.86
2017-12-04T08:34:39.610Z,966.75
2017-12-04T08:35:39.624Z,966.76
2017-12-04T08:36:39.635Z,966.76
2017-12-04T08:37:39.646Z,966.69
2017-12-04T08:38:39.663Z,966.71
2017-12-04T08:39:39.671Z,966.74
2017-12-04T08:40:39.734Z,966.69
2017-12-04T08:41:39.695Z,966.7
2017-12-04T08:42:39.706Z,966.7
2017-12-04T08:43:39.728Z,966.73
2017-12-04T08:44:39.731Z,966.76
2017-12-04T08:45:39.744Z,966.74
2017-12-04T08:46:39.755Z,966.74
2017-12-04T08:47:39.768Z,966.67
2017-12-04T08:48:39.779Z,966.79
2017-12-04T08:49:39.793Z,966.71
2017-12-04T08:50:39.807Z,966.72
2017-12-04T08:51:39.817Z,966.72
2017-12-04T08:52:39.829Z,966.76
2017-12-04T08:53:39.841Z,966.85
2017-12-04T08:54:39.853Z,966.86
2017-12-04T08:55:39.865Z,966.97
2017-12-04T08:56:39.928Z,966.81
2017-12-04T08:57:39.891Z,966.95
2017-12-04T08:58:39.915Z,966.87
2017-12-04T08:59:39.917Z,966.82
2017-12-04T09:00:39.926Z,966.88
2017-12-04T09:01:39.939Z,966.9
2017-12-04T09:02:39.950Z,966.91
2017-12-04T09:03:39.962Z,966.82
2017-12-04T09:04:39.996Z,966.95
2017-12-04T09:05:39.986Z,966.95
2017-12-04T09:06:39.999Z,966.91
2017-12-04T09:07:40.012Z,966.92
2017-12-04T09:08:40.025Z,966.88
2017-12-04T09:09:40.036Z,966.88
2017-12-04T09:10:40.048Z,966.91
2017-12-04T09:11:40.111Z,966.88
2017-12-04T09:12:40.075Z,966.89
2017-12-04T09:13:40.086Z,967.1
2017-12-04T09:14:40.099Z,966.97
2017-12-04T09:15:40.127Z,966.95
2017-12-04T09:16:40.130Z,966.9
2017-12-04T09:17:40.138Z,966.95
2017-12-04T09:18:40.150Z,966.93
2017-12-04T09:19:40.163Z,966.97
2017-12-04T09:20:40.173Z,966.95
2017-12-04T09:21:40.187Z,966.97
2017-12-04T09:22:40.200Z,967.03
2017-12-04T09:23:40.211Z,967.14
2017-12-04T09:24:40.222Z,967.05
2017-12-04T09:25:40.235Z,966.99
2017-12-04T09:26:40.298Z,966.99
2017-12-04T09:27:40.264Z,967
2017-12-04T09:28:40.273Z,967.04
2017-12-04T09:29:40.286Z,967.06
2017-12-04T09:30:40.298Z,967.06
2017-12-04T09:31:40.309Z,967.08
2017-12-04T09:32:40.324Z,967.14
2017-12-04T09:33:40.346Z,967.02
2017-12-04T09:34:40.348Z,967.1
2017-12-04T09:35:40.358Z,967.05
2017-12-04T09:36:40.379Z,967.02
2017-12-04T09:37:40.383Z,967.03
2017-12-04T09:38:40.397Z,967.04
2017-12-04T09:39:40.409Z,966.97
2017-12-04T09:40:40.431Z,967.09
2017-12-04T09:41:40.483Z,967.03
2017-12-04T09:42:40.445Z,967.07
2017-12-04T09:43:40.457Z,967.06
2017-12-04T09:44:40.470Z,967.05
2017-12-04T09:45:40.482Z,967.08
2017-12-04T09:46:40.494Z,967.23
2017-12-04T09:47:40.508Z,967.1
2017-12-04T09:48:40.519Z,967.02
2017-12-04T09:49:40.530Z,967.15
2017-12-04T09:50:40.544Z,967
2017-12-04T09:51:40.558Z,967.1
2017-12-04T09:52:40.567Z,967.29
2017-12-04T09:53:40.584Z,967.16
2017-12-04T09:54:40.592Z,967.08
2017-12-04T09:55:40.604Z,967.08
2017-12-04T09:56:40.666Z,967.16
2017-12-04T09:57:40.630Z,967.1
2017-12-04T09:58:40.642Z,967.08
2017-12-04T09:59:40.654Z,967.16
2017-12-04T10:00:40.664Z,967.15
2017-12-04T10:01:40.678Z,967.08
2017-12-04T10:02:40.690Z,967.16
2017-12-04T10:03:40.704Z,967.14
2017-12-04T10:04:40.715Z,967.15
2017-12-04T10:05:40.727Z,967.15
2017-12-04T10:06:40.739Z,967.07
2017-12-04T10:07:40.753Z,967.04
2017-12-04T10:08:40.763Z,967.12
2017-12-04T10:09:40.775Z,967.09
2017-12-04T10:10:40.788Z,967.08
2017-12-04T10:11:40.850Z,967.08
2017-12-04T10:12:40.813Z,967.08
2017-12-04T10:13:40.826Z,967.01
2017-12-04T10:14:40.837Z,967.05
2017-12-04T10:15:40.851Z,967.04
2017-12-04T10:16:40.863Z,966.85
2017-12-04T10:17:40.875Z,967
2017-12-04T10:18:40.887Z,966.95
2017-12-04T10:19:40.898Z,966.89
2017-12-04T10:20:40.908Z,966.98
2017-12-04T10:21:40.923Z,966.9
2017-12-04T10:22:40.935Z,966.95
2017-12-04T10:23:40.966Z,966.96
2017-12-04T10:24:40.958Z,966.8
2017-12-04T10:25:40.971Z,966.92
2017-12-04T10:26:40.982Z,966.8
2017-12-04T10:27:40.995Z,966.93
2017-12-04T10:28:41.007Z,966.95
2017-12-04T10:29:41.070Z,967
2017-12-04T10:30:41.032Z,966.98
2017-12-04T10:31:41.049Z,967
2017-12-04T10:32:41.058Z,966.93
2017-12-04T10:33:41.067Z,966.9
2017-12-04T10:34:41.078Z,967.04
2017-12-04T10:35:41.092Z,967
2017-12-04T10:36:41.105Z,966.98
2017-12-04T10:37:41.118Z,966.89
2017-12-04T10:38:41.126Z,966.98
2017-12-04T10:39:41.139Z,966.91
2017-12-04T10:40:41.151Z,966.92
2017-12-04T10:41:41.164Z,966.89
2017-12-04T10:42:41.175Z,966.91
2017-12-04T10:43:41.187Z,966.82
2017-12-04T10:44:41.249Z,966.83
2017-12-04T10:45:41.211Z,966.88
2017-12-04T10:46:41.224Z,966.83
2017-12-04T10:47:41.237Z,966.85
2017-12-04T10:48:41.291Z,966.84
2017-12-04T10:49:41.260Z,966.81
2017-12-04T10:50:41.273Z,966.84
2017-12-04T10:51:41.287Z,966.77
2017-12-04T10:52:41.299Z,966.85
2017-12-04T10:53:41.313Z,966.82
2017-12-04T10:54:41.325Z,966.77
2017-12-04T10:55:41.336Z,966.81
2017-12-04T10:56:41.348Z,966.83
2017-12-04T10:57:41.361Z,966.73
2017-12-04T10:58:41.374Z,966.75
2017-12-04T10:59:41.536Z,966.79
2017-12-04T11:00:41.401Z,966.9
2017-12-04T11:01:41.413Z,966.83
2017-12-04T11:02:41.424Z,966.85
2017-12-04T11:03:41.437Z,966.86
2017-12-04T11:04:41.449Z,966.99
2017-12-04T11:05:41.462Z,966.8
2017-12-04T11:06:41.474Z,966.84
2017-12-04T11:07:41.487Z,966.89
2017-12-04T11:08:41.501Z,966.91
2017-12-04T11:09:41.515Z,966.88
2017-12-04T11:10:41.526Z,966.83
2017-12-04T11:11:41.539Z,966.91
2017-12-04T11:12:41.554Z,966.88
2017-12-04T11:13:41.584Z,966.87
2017-12-04T11:14:41.577Z,966.9
2017-12-04T11:15:41.589Z,966.85
2017-12-04T11:16:41.603Z,966.93
2017-12-04T11:17:41.615Z,966.98
2017-12-04T11:18:41.626Z,967.04
2017-12-04T11:19:41.639Z,966.87
2017-12-04T11:20:41.654Z,966.86
2017-12-04T11:21:41.665Z,966.89
2017-12-04T11:22:41.677Z,966.97
2017-12-04T11:23:41.692Z,966.91
2017-12-04T11:24:41.702Z,966.94
2017-12-04T11:25:41.714Z,966.93
2017-12-04T11:26:41.727Z,966.91
2017-12-04T11:27:41.740Z,966.94
2017-12-04T11:28:41.752Z,966.9
2017-12-04T11:29:41.763Z,966.91
2017-12-04T11:30:41.825Z,966.93
2017-12-04T11:31:41.788Z,967
2017-12-04T11:32:41.799Z,966.97
2017-12-04T11:33:42.012Z,966.89
2017-12-04T11:34:41.824Z,966.91
2017-12-04T11:35:41.838Z,966.95
2017-12-04T11:36:41.852Z,966.93
2017-12-04T11:37:41.861Z,966.93
2017-12-04T11:38:41.875Z,966.84
2017-12-04T11:39:41.890Z,966.83
2017-12-04T11:40:41.899Z,966.88
2017-12-04T11:41:41.911Z,966.87
2017-12-04T11:42:41.924Z,966.95
2017-12-04T11:43:41.936Z,966.93
2017-12-04T11:44:41.949Z,966.89
2017-12-04T11:45:41.961Z,966.96
2017-12-04T11:46:41.972Z,966.93
2017-12-04T11:47:41.996Z,966.92
2017-12-04T11:48:42.048Z,967.07
2017-12-04T11:49:42.010Z,966.93
2017-12-04T11:50:42.023Z,966.94
2017-12-04T11:51:42.034Z,966.91
2017-12-04T11:52:42.047Z,966.93
2017-12-04T11:53:42.060Z,966.97
2017-12-04T11:54:42.084Z,966.88
2017-12-04T11:55:42.083Z,966.93
2017-12-04T11:56:42.100Z,966.91
2017-12-04T11:57:42.107Z,966.91
2017-12-04T11:58:42.122Z,966.85
2017-12-04T11:59:42.134Z,966.85
2017-12-04T12:00:42.147Z,966.83
2017-12-04T12:01:42.159Z,966.85
2017-12-04T12:02:42.170Z,966.86
2017-12-04T12:03:42.235Z,966.86
2017-12-04T12:04:42.197Z,966.86
2017-12-04T12:05:42.209Z,966.81
2017-12-04T12:06:42.221Z,966.83
2017-12-04T12:07:42.234Z,966.93
2017-12-04T12:08:42.246Z,966.92
2017-12-04T12:09:42.262Z,966.8
2017-12-04T12:10:42.273Z,966.82
2017-12-04T12:11:42.285Z,966.88
2017-12-04T12:12:42.297Z,966.81
2017-12-04T12:13:42.311Z,966.82
2017-12-04T12:14:42.324Z,966.83
2017-12-04T12:15:42.337Z,966.9
2017-12-04T12:16:42.349Z,966.82
2017-12-04T12:17:42.361Z,966.82
2017-12-04T12:18:42.425Z,966.87
2017-12-04T12:19:42.387Z,966.87
2017-12-04T12:20:42.400Z,966.92
2017-12-04T12:21:42.413Z,966.87
2017-12-04T12:22:42.427Z,966.81
2017-12-04T12:23:42.443Z,966.88
2017-12-04T12:24:42.452Z,966.83
2017-12-04T12:25:42.473Z,966.79
2017-12-04T12:26:42.479Z,966.84
2017-12-04T12:27:42.492Z,966.85
2017-12-04T12:28:42.503Z,966.87
2017-12-04T12:29:42.516Z,966.86
2017-12-04T12:30:42.528Z,966.81
2017-12-04T12:31:42.541Z,966.81